createdAt,value
2022-08-05T00:02:21.987Z,26.14
2022-08-05T00:04:55.248Z,26.13
2022-08-05T00:07:59.147Z,26.14
2022-08-05T00:10:09.974Z,26.12
2022-08-05T00:12:48.552Z,26.13
2022-08-05T00:15:56.229Z,26.11
2022-08-05T00:18:21.415Z,26.11
2022-08-05T00:20:50.238Z,26.11
2022-08-05T00:23:17.106Z,26.11
2022-08-05T00:25:46.087Z,26.12
2022-08-05T00:28:13.756Z,26.11
2022-08-05T00:30:41.254Z,26.12
2022-08-05T00:33:15.698Z,26.10
2022-08-05T00:36:16.665Z,26.11
2022-08-05T00:38:44.701Z,25.98
2022-08-05T00:41:11.996Z,26.05
2022-08-05T00:43:46.451Z,26.06
2022-08-05T00:46:14.204Z,26.07
2022-08-05T00:48:50.449Z,26.06
2022-08-05T00:51:50.512Z,26.06
2022-08-05T00:54:06.430Z,26.06
2022-08-05T00:56:33.205Z,26.06
2022-08-05T00:59:00.238Z,26.05
2022-08-05T01:01:42.767Z,26.05
2022-08-05T01:04:15.665Z,26.04
2022-08-05T01:06:48.632Z,26.05
2022-08-05T01:09:17.240Z,26.05
2022-08-05T01:11:49.064Z,26.05
2022-08-05T01:14:49.341Z,26.04
2022-08-05T01:17:31.589Z,26.03
2022-08-05T01:20:27.082Z,26.03
2022-08-05T01:23:34.595Z,26.01
2022-08-05T01:26:17.292Z,26.00
2022-08-05T01:28:49.304Z,26.01
2022-08-05T01:31:28.200Z,26.01
2022-08-05T01:34:01.826Z,26.00
2022-08-05T01:36:32.486Z,26.01
2022-08-05T01:39:01.221Z,26.01
2022-08-05T01:41:31.478Z,26.00
2022-08-05T01:43:59.999Z,26.00
2022-08-05T01:46:42.019Z,25.99
2022-08-05T01:49:24.131Z,25.99
2022-08-05T01:51:56.128Z,25.98
2022-08-05T01:54:30.744Z,25.98
2022-08-05T01:58:09.431Z,25.97
2022-08-05T01:59:47.417Z,25.96
2022-08-05T02:02:15.817Z,25.96
2022-08-05T02:04:43.343Z,25.95
2022-08-05T02:07:21.961Z,25.96
2022-08-05T02:09:49.502Z,25.86
2022-08-05T02:12:33.953Z,25.93
2022-08-05T02:15:12.045Z,25.93
2022-08-05T02:18:32.992Z,25.93
2022-08-05T02:20:40.603Z,25.93
2022-08-05T02:23:11.125Z,25.93
2022-08-05T02:25:49.839Z,25.92
2022-08-05T02:28:29.083Z,25.92
2022-08-05T02:31:28.492Z,25.92
2022-08-05T02:34:09.217Z,25.90
2022-08-05T02:36:41.743Z,25.91
2022-08-05T02:39:10.456Z,25.89
2022-08-05T02:41:57.597Z,25.91
2022-08-05T02:44:25.530Z,25.88
2022-08-05T02:46:58.730Z,25.89
2022-08-05T02:49:37.064Z,25.88
2022-08-05T02:52:07.959Z,25.87
2022-08-05T02:54:37.141Z,25.87
2022-08-05T02:58:12.114Z,25.86
2022-08-05T03:00:13.297Z,25.86
2022-08-05T03:02:41.199Z,25.86
2022-08-05T03:05:11.600Z,25.86
2022-08-05T03:07:56.607Z,25.84
2022-08-05T03:10:26.764Z,25.83
2022-08-05T03:15:24.171Z,25.83
2022-08-05T03:17:57.438Z,25.82
2022-08-05T03:20:24.974Z,25.82
2022-08-05T03:22:52.780Z,25.83
2022-08-05T03:25:33.207Z,25.82
2022-08-05T03:28:09.948Z,25.81
2022-08-05T03:30:38.335Z,25.80
2022-08-05T03:33:08.258Z,25.81
2022-08-05T03:35:41.470Z,25.81
2022-08-05T03:38:11.167Z,25.81
2022-08-05T03:40:41.597Z,25.81
2022-08-05T03:43:59.167Z,25.80
2022-08-05T03:45:59.358Z,25.79
2022-08-05T03:48:29.122Z,25.81
2022-08-05T03:52:38.732Z,25.79
2022-08-05T03:55:50.895Z,25.80
2022-08-05T03:57:16.255Z,25.78
2022-08-05T03:59:54.698Z,25.78
2022-08-05T04:02:38.344Z,25.78
2022-08-05T04:05:09.612Z,25.78
2022-08-05T04:07:53.058Z,25.78
2022-08-05T04:10:24.462Z,25.75
2022-08-05T04:12:55.284Z,25.76
2022-08-05T04:15:24.520Z,25.75
2022-08-05T04:17:56.818Z,25.75
2022-08-05T04:20:26.728Z,25.75
2022-08-05T04:22:53.428Z,25.75
2022-08-05T04:25:38.415Z,25.72
2022-08-05T04:28:11.410Z,25.72
2022-08-05T04:30:39.757Z,25.73
2022-08-05T04:33:06.460Z,25.72
2022-08-05T04:36:16.063Z,25.71
2022-08-05T04:38:21.074Z,25.60
2022-08-05T04:40:50.925Z,25.66
2022-08-05T04:43:17.899Z,25.68
2022-08-05T04:45:54.988Z,25.66
2022-08-05T04:48:27.891Z,25.68
2022-08-05T04:51:03.304Z,25.68
2022-08-05T04:53:38.765Z,25.67
2022-08-05T04:56:32.810Z,25.66
2022-08-05T04:58:54.169Z,25.65
2022-08-05T05:02:07.900Z,25.66
2022-08-05T05:04:07.632Z,25.54
2022-08-05T05:06:39.670Z,25.61
2022-08-05T05:09:17.453Z,25.59
2022-08-05T05:11:53.028Z,25.46
2022-08-05T05:14:31.532Z,25.29
2022-08-05T05:16:59.492Z,25.04
2022-08-05T05:19:27.612Z,25.03
2022-08-05T05:22:23.840Z,25.00
2022-08-05T05:24:56.852Z,24.82
2022-08-05T05:27:25.391Z,24.86
2022-08-05T05:30:15.477Z,24.73
2022-08-05T05:32:56.853Z,24.77
2022-08-05T05:35:27.039Z,24.76
2022-08-05T05:38:00.263Z,24.74
2022-08-05T05:40:29.917Z,24.70
2022-08-05T05:42:57.525Z,24.69
2022-08-05T05:45:24.868Z,24.70
2022-08-05T05:48:07.109Z,24.73
2022-08-05T05:50:43.940Z,24.76
2022-08-05T05:53:21.931Z,24.74
2022-08-05T05:55:51.507Z,24.75
2022-08-05T05:58:31.514Z,24.73
2022-08-05T06:01:02.193Z,24.72
2022-08-05T06:03:54.084Z,24.70
2022-08-05T06:06:28.047Z,24.68
2022-08-05T06:08:58.391Z,24.67
2022-08-05T06:11:25.131Z,24.63
2022-08-05T06:13:54.012Z,24.61
2022-08-05T06:16:28.883Z,24.62
2022-08-05T06:19:05.983Z,24.60
2022-08-05T06:21:37.054Z,24.60
2022-08-05T06:24:11.911Z,24.62
2022-08-05T06:26:51.256Z,24.63
2022-08-05T06:29:25.145Z,24.63
2022-08-05T06:32:21.420Z,24.64
2022-08-05T06:34:56.114Z,24.62
2022-08-05T06:37:57.964Z,24.61
2022-08-05T06:40:11.924Z,24.60
2022-08-05T06:42:39.677Z,24.62
2022-08-05T06:45:08.944Z,24.60
2022-08-05T06:48:36.809Z,24.61
2022-08-05T06:50:22.988Z,24.59
2022-08-05T06:52:58.787Z,24.60
2022-08-05T06:55:37.088Z,24.51
2022-08-05T06:58:19.969Z,24.59
2022-08-05T07:00:47.431Z,24.62
2022-08-05T07:03:14.133Z,24.63
2022-08-05T07:05:44.129Z,24.64
2022-08-05T07:08:13.387Z,24.64
2022-08-05T07:10:52.879Z,24.62
2022-08-05T07:13:58.116Z,24.61
2022-08-05T07:17:58.597Z,24.57
2022-08-05T07:20:22.949Z,24.56
2022-08-05T07:22:22.227Z,24.58
2022-08-05T07:24:56.951Z,24.59
2022-08-05T07:27:27.535Z,24.57
2022-08-05T07:30:24.261Z,24.61
2022-08-05T07:32:55.284Z,24.65
2022-08-05T07:36:02.762Z,24.66
2022-08-05T07:38:12.407Z,24.58
2022-08-05T07:40:55.666Z,24.67
2022-08-05T07:43:31.487Z,24.68
2022-08-05T07:46:01.621Z,24.74
2022-08-05T07:49:00.821Z,24.77
2022-08-05T07:51:23.548Z,24.80
2022-08-05T07:54:02.982Z,24.82
2022-08-05T07:57:02.785Z,24.79
2022-08-05T07:59:16.825Z,24.75
2022-08-05T08:01:52.047Z,24.77
2022-08-05T08:04:37.450Z,24.79
2022-08-05T08:07:07.127Z,24.78
2022-08-05T08:09:34.952Z,24.77
2022-08-05T08:12:10.723Z,24.75
2022-08-05T08:14:46.750Z,24.76
2022-08-05T08:17:15.747Z,24.77
2022-08-05T08:20:10.683Z,24.75
2022-08-05T08:22:30.814Z,24.72
2022-08-05T08:25:03.334Z,24.75
2022-08-05T08:27:45.187Z,24.79
2022-08-05T08:30:28.456Z,24.85
2022-08-05T08:33:04.554Z,24.89
2022-08-05T08:35:41.397Z,24.89
2022-08-05T08:38:35.273Z,24.92
2022-08-05T08:41:07.464Z,24.96
2022-08-05T08:45:18.028Z,24.94
2022-08-05T08:46:24.519Z,24.89
2022-08-05T08:49:07.737Z,24.77
2022-08-05T08:52:03.741Z,24.73
2022-08-05T08:54:30.732Z,24.71
2022-08-05T08:56:59.547Z,24.67
2022-08-05T08:59:27.531Z,24.68
2022-08-05T09:02:01.356Z,24.70
2022-08-05T09:04:30.722Z,24.68
2022-08-05T09:06:58.432Z,24.68
2022-08-05T09:09:34.746Z,24.72
2022-08-05T09:12:14.437Z,24.78
2022-08-05T09:14:57.715Z,24.80
2022-08-05T09:17:42.733Z,24.81
2022-08-05T09:20:13.398Z,24.83
2022-08-05T09:23:19.666Z,24.89
2022-08-05T09:26:01.373Z,24.92
2022-08-05T09:28:35.196Z,24.92
2022-08-05T09:31:22.121Z,24.95
2022-08-05T09:33:59.361Z,24.98
2022-08-05T09:36:56.317Z,25.00
2022-08-05T09:39:39.410Z,25.02
2022-08-05T09:42:23.710Z,25.01
2022-08-05T09:44:56.430Z,25.05
2022-08-05T09:47:36.416Z,25.08
2022-08-05T09:50:18.065Z,25.09
2022-08-05T09:53:01.733Z,25.12
2022-08-05T09:55:57.336Z,25.12
2022-08-05T09:58:22.908Z,25.12
2022-08-05T10:01:13.299Z,25.13
2022-08-05T10:04:00.264Z,25.13
2022-08-05T10:06:28.275Z,25.15
2022-08-05T10:08:56.156Z,25.16
2022-08-05T10:11:23.539Z,25.15
2022-08-05T10:13:54.547Z,25.16
2022-08-05T10:16:37.943Z,25.15
2022-08-05T10:19:19.004Z,24.98
2022-08-05T10:21:50.758Z,25.09
2022-08-05T10:24:21.475Z,25.13
2022-08-05T10:26:56.472Z,25.14
2022-08-05T10:30:41.387Z,25.18
2022-08-05T10:32:54.654Z,25.21
2022-08-05T10:35:03.599Z,25.19
2022-08-05T10:37:40.040Z,25.21
2022-08-05T10:40:46.905Z,25.19
2022-08-05T10:43:30.820Z,25.23
2022-08-05T10:46:07.515Z,25.28
2022-08-05T10:48:57.085Z,25.29
2022-08-05T10:51:29.177Z,25.31
2022-08-05T10:54:05.652Z,25.31
2022-08-05T10:56:53.082Z,25.28
2022-08-05T11:00:03.345Z,25.24
2022-08-05T11:02:34.848Z,25.23
2022-08-05T11:05:10.381Z,25.28
2022-08-05T11:08:02.693Z,25.28
2022-08-05T11:10:37.044Z,25.31
2022-08-05T11:13:05.347Z,25.32
2022-08-05T11:15:59.523Z,25.32
2022-08-05T11:18:34.150Z,25.32
2022-08-05T11:21:06.288Z,25.30
2022-08-05T11:24:30.325Z,25.29
2022-08-05T11:27:43.294Z,25.27
2022-08-05T11:30:18.539Z,25.29
2022-08-05T11:32:47.787Z,25.30
2022-08-05T11:36:07.897Z,25.32
2022-08-05T11:38:45.992Z,25.31
2022-08-05T11:41:56.377Z,25.33
2022-08-05T11:44:40.420Z,25.32
2022-08-05T11:47:10.956Z,25.32
2022-08-05T11:49:39.615Z,25.32
2022-08-05T11:52:11.747Z,25.32
2022-08-05T11:54:40.703Z,25.33
2022-08-05T11:57:25.275Z,25.34
2022-08-05T11:59:53.500Z,25.33
2022-08-05T12:02:30.240Z,25.34
2022-08-05T12:05:00.879Z,25.32
2022-08-05T12:08:08.670Z,25.32
2022-08-05T12:10:21.239Z,25.32
2022-08-05T12:12:59.551Z,25.33
2022-08-05T12:15:35.882Z,25.33
2022-08-05T12:18:10.471Z,25.31
2022-08-05T12:20:39.032Z,25.31
2022-08-05T12:23:12.761Z,25.33
2022-08-05T12:25:53.719Z,25.33
2022-08-05T12:28:37.659Z,25.33
2022-08-05T12:31:05.320Z,25.33
2022-08-05T12:33:36.339Z,25.34
2022-08-05T12:36:08.841Z,25.34
2022-08-05T12:38:40.278Z,25.36
2022-08-05T12:41:17.436Z,25.35
2022-08-05T12:43:55.883Z,25.36
2022-08-05T12:46:29.936Z,25.37
2022-08-05T12:49:05.882Z,25.36
2022-08-05T12:52:14.234Z,25.35
2022-08-05T12:54:32.279Z,25.33
2022-08-05T12:57:01.191Z,25.34
2022-08-05T12:59:46.595Z,25.34
2022-08-05T13:02:19.812Z,25.34
2022-08-05T13:04:54.411Z,25.34
2022-08-05T13:07:55.750Z,25.32
2022-08-05T13:10:13.219Z,25.32
2022-08-05T13:12:51.284Z,25.32
2022-08-05T13:15:41.401Z,25.30
2022-08-05T13:18:19.834Z,25.30
2022-08-05T13:20:49.331Z,25.31
2022-08-05T13:23:18.021Z,25.32
2022-08-05T13:25:58.542Z,25.31
2022-08-05T13:28:28.435Z,25.32
2022-08-05T13:30:55.579Z,25.33
2022-08-05T13:34:24.493Z,25.33
2022-08-05T13:36:11.367Z,25.34
2022-08-05T13:38:42.658Z,25.32
2022-08-05T13:41:11.023Z,25.33
2022-08-05T13:43:44.791Z,25.33
2022-08-05T13:46:44.055Z,25.33
2022-08-05T13:49:10.044Z,25.32
2022-08-05T13:51:41.057Z,25.32
2022-08-05T13:54:12.646Z,25.35
2022-08-05T13:56:45.189Z,25.33
2022-08-05T13:59:24.157Z,25.32
2022-08-05T14:01:57.804Z,25.32
2022-08-05T14:04:51.061Z,25.33
2022-08-05T14:07:25.742Z,25.33
2022-08-05T14:10:28.124Z,25.31
2022-08-05T14:12:57.356Z,25.31
2022-08-05T14:16:07.314Z,25.30
2022-08-05T14:18:14.751Z,25.29
2022-08-05T14:20:47.214Z,25.31
2022-08-05T14:23:23.457Z,25.31
2022-08-05T14:25:58.090Z,25.29
2022-08-05T14:28:29.959Z,25.29
2022-08-05T14:30:58.136Z,25.31
2022-08-05T14:33:25.046Z,25.30
2022-08-05T14:35:54.255Z,25.31
2022-08-05T14:38:27.879Z,25.31
2022-08-05T14:41:06.320Z,25.31
2022-08-05T14:43:58.862Z,25.31
2022-08-05T14:46:28.683Z,25.31
2022-08-05T14:49:06.427Z,25.31
2022-08-05T14:51:42.564Z,25.30
2022-08-05T14:54:30.264Z,25.30
2022-08-05T14:56:57.648Z,25.30
2022-08-05T14:59:25.063Z,25.31
2022-08-05T15:01:56.773Z,25.30
2022-08-05T15:04:27.260Z,25.28
2022-08-05T15:06:55.670Z,25.28
2022-08-05T15:09:52.876Z,25.31
2022-08-05T15:12:11.466Z,25.29
2022-08-05T15:14:48.279Z,25.32
2022-08-05T15:17:45.961Z,25.32
2022-08-05T15:20:06.240Z,25.31
2022-08-05T15:22:36.896Z,25.31
2022-08-05T15:25:13.666Z,25.30
2022-08-05T15:27:42.937Z,25.27
2022-08-05T15:30:19.121Z,25.28
2022-08-05T15:32:46.609Z,25.29
2022-08-05T15:35:13.402Z,25.32
2022-08-05T15:38:34.854Z,25.33
2022-08-05T15:41:00.733Z,25.35
2022-08-05T15:43:20.159Z,25.35
2022-08-05T15:45:48.059Z,25.38
2022-08-05T15:48:28.493Z,25.38
2022-08-05T15:50:55.297Z,25.41
2022-08-05T15:53:23.249Z,25.43
2022-08-05T15:56:02.374Z,25.43
2022-08-05T15:58:36.880Z,25.45
2022-08-05T16:01:16.113Z,25.45
2022-08-05T16:03:45.334Z,25.44
2022-08-05T16:06:15.400Z,25.44
2022-08-05T16:08:47.415Z,25.46
2022-08-05T16:11:14.311Z,25.47
2022-08-05T16:13:41.352Z,25.45
2022-08-05T16:16:08.153Z,25.44
2022-08-05T16:18:52.419Z,25.44
2022-08-05T16:21:20.802Z,25.43
2022-08-05T16:24:07.688Z,25.42
2022-08-05T16:26:58.764Z,25.43
2022-08-05T16:29:26.943Z,25.40
2022-08-05T16:31:58.315Z,25.40
2022-08-05T16:34:26.183Z,25.39
2022-08-05T16:36:53.821Z,25.39
2022-08-05T16:39:21.028Z,25.39
2022-08-05T16:42:13.716Z,25.39
2022-08-05T16:44:34.954Z,25.39
2022-08-05T16:47:04.637Z,25.39
2022-08-05T16:49:31.433Z,25.38
2022-08-05T16:51:58.077Z,25.38
2022-08-05T16:54:31.945Z,25.39
2022-08-05T16:57:00.120Z,25.39
2022-08-05T16:59:30.610Z,25.38
2022-08-05T17:01:57.691Z,25.38
2022-08-05T17:04:28.027Z,25.37
2022-08-05T17:07:03.149Z,25.35
2022-08-05T17:09:38.769Z,25.29
2022-08-05T17:12:17.556Z,25.11
2022-08-05T17:14:49.730Z,25.05
2022-08-05T17:17:16.583Z,25.04
2022-08-05T17:19:46.586Z,25.03
2022-08-05T17:22:25.571Z,24.96
2022-08-05T17:24:58.449Z,24.95
2022-08-05T17:27:33.767Z,24.81
2022-08-05T17:30:02.900Z,24.72
2022-08-05T17:32:30.264Z,24.70
2022-08-05T17:35:00.598Z,24.65
2022-08-05T17:37:41.505Z,24.66
2022-08-05T17:40:15.076Z,24.64
2022-08-05T17:42:49.882Z,24.66
2022-08-05T17:45:21.058Z,24.58
2022-08-05T17:47:55.070Z,24.63
2022-08-05T17:50:28.517Z,24.65
2022-08-05T17:53:01.369Z,24.62
2022-08-05T17:55:37.353Z,24.63
2022-08-05T17:58:12.475Z,24.61
2022-08-05T18:00:47.478Z,24.62
2022-08-05T18:03:39.305Z,24.58
2022-08-05T18:06:11.153Z,24.55
2022-08-05T18:08:44.078Z,24.52
2022-08-05T18:11:24.549Z,24.51
2022-08-05T18:13:59.553Z,24.46
2022-08-05T18:16:26.450Z,24.42
2022-08-05T18:18:53.174Z,24.39
2022-08-05T18:21:22.680Z,24.36
2022-08-05T18:23:53.494Z,24.40
2022-08-05T18:26:22.007Z,24.39
2022-08-05T18:28:54.784Z,24.39
2022-08-05T18:31:23.574Z,24.45
2022-08-05T18:33:51.640Z,24.50
2022-08-05T18:36:19.176Z,24.56
2022-08-05T18:38:46.312Z,24.60
2022-08-05T18:41:57.940Z,24.64
2022-08-05T18:44:06.204Z,24.65
2022-08-05T18:46:34.634Z,24.66
2022-08-05T18:49:22.210Z,24.68
2022-08-05T18:52:17.957Z,24.66
2022-08-05T18:54:54.576Z,24.63
2022-08-05T18:57:23.904Z,24.64
2022-08-05T19:00:03.236Z,24.61
2022-08-05T19:02:31.050Z,24.58
2022-08-05T19:05:02.057Z,24.58
2022-08-05T19:07:49.729Z,24.51
2022-08-05T19:10:17.429Z,24.49
2022-08-05T19:12:46.241Z,24.49
2022-08-05T19:15:57.059Z,24.47
2022-08-05T19:18:09.163Z,24.33
2022-08-05T19:20:41.159Z,24.42
2022-08-05T19:24:06.101Z,24.43
2022-08-05T19:26:01.689Z,24.43
2022-08-05T19:28:30.497Z,24.42
2022-08-05T19:30:57.260Z,24.42
2022-08-05T19:33:34.035Z,24.41
2022-08-05T19:36:02.832Z,24.41
2022-08-05T19:38:35.573Z,24.41
2022-08-05T19:41:02.948Z,24.41
2022-08-05T19:44:06.700Z,24.42
2022-08-05T19:46:28.958Z,24.37
2022-08-05T19:48:57.678Z,24.38
2022-08-05T19:52:04.227Z,24.39
2022-08-05T19:54:21.988Z,24.38
2022-08-05T19:56:58.390Z,24.38
2022-08-05T19:59:55.446Z,24.38
2022-08-05T20:02:13.104Z,24.35
2022-08-05T20:04:43.242Z,24.35
2022-08-05T20:07:13.434Z,24.35
2022-08-05T20:09:53.929Z,24.35
2022-08-05T20:12:23.745Z,24.33
2022-08-05T20:14:52.513Z,24.32
2022-08-05T20:17:23.810Z,24.32
2022-08-05T20:19:56.991Z,24.26
2022-08-05T20:22:26.650Z,24.16
2022-08-05T20:24:54.945Z,24.15
2022-08-05T20:27:27.022Z,24.15
2022-08-05T20:29:58.499Z,24.15
2022-08-05T20:32:27.113Z,24.16
2022-08-05T20:34:54.279Z,24.15
2022-08-05T20:38:06.770Z,24.13
2022-08-05T20:40:08.657Z,24.08
2022-08-05T20:42:35.511Z,24.07
2022-08-05T20:45:02.764Z,24.06
2022-08-05T20:47:31.982Z,24.07
2022-08-05T20:49:59.522Z,24.07
2022-08-05T20:52:28.794Z,24.11
2022-08-05T20:55:15.966Z,24.16
2022-08-05T20:57:44.356Z,24.22
2022-08-05T21:00:41.232Z,24.28
2022-08-05T21:03:06.882Z,24.31
2022-08-05T21:05:47.918Z,24.33
2022-08-05T21:08:21.097Z,24.37
2022-08-05T21:10:53.726Z,24.38
2022-08-05T21:13:20.408Z,24.39
2022-08-05T21:16:01.811Z,24.41
2022-08-05T21:18:30.310Z,24.42
2022-08-05T21:20:57.519Z,24.43
2022-08-05T21:23:24.848Z,24.44
2022-08-05T21:25:51.709Z,24.45
2022-08-05T21:28:23.837Z,24.47
2022-08-05T21:30:50.933Z,24.47
2022-08-05T21:33:22.639Z,24.47
2022-08-05T21:35:55.827Z,24.48
2022-08-05T21:38:28.074Z,24.48
2022-08-05T21:40:54.841Z,24.48
2022-08-05T21:43:24.576Z,24.49
2022-08-05T21:45:57.479Z,24.49
2022-08-05T21:48:27.814Z,24.49
2022-08-05T21:50:55.474Z,24.50
2022-08-05T21:53:27.053Z,24.51
2022-08-05T21:56:05.321Z,24.51
2022-08-05T21:58:42.089Z,24.52
2022-08-05T22:01:10.805Z,24.52
2022-08-05T22:03:52.543Z,24.52
2022-08-05T22:06:22.975Z,24.52
2022-08-05T22:09:00.244Z,24.51
2022-08-05T22:11:35.097Z,24.53
2022-08-05T22:14:05.817Z,24.52
2022-08-05T22:16:50.792Z,24.52
2022-08-05T22:20:01.229Z,24.52
2022-08-05T22:22:05.390Z,24.52
2022-08-05T22:24:52.512Z,24.51
2022-08-05T22:28:05.021Z,24.51
2022-08-05T22:30:35.114Z,24.51
2022-08-05T22:33:03.098Z,24.52
2022-08-05T22:35:31.088Z,24.51
2022-08-05T22:38:14.945Z,24.51
2022-08-05T22:40:42.038Z,24.51
2022-08-05T22:43:16.462Z,24.51
2022-08-05T22:46:11.867Z,24.51
2022-08-05T22:48:39.893Z,24.51
2022-08-05T22:51:07.825Z,24.50
2022-08-05T22:53:35.891Z,24.51
2022-08-05T22:56:03.823Z,24.50
2022-08-05T22:58:36.703Z,24.50
2022-08-05T23:01:03.422Z,24.50
2022-08-05T23:03:58.156Z,24.50
2022-08-05T23:06:20.025Z,24.49
2022-08-05T23:08:53.066Z,24.49
2022-08-05T23:11:19.781Z,24.49
2022-08-05T23:13:46.464Z,24.50
2022-08-05T23:16:26.204Z,24.49
2022-08-05T23:19:00.395Z,24.48
2022-08-05T23:21:42.486Z,24.48
2022-08-05T23:24:11.335Z,24.47
2022-08-05T23:26:38.330Z,24.47
2022-08-05T23:29:05.484Z,24.46
2022-08-05T23:31:36.621Z,24.46
2022-08-05T23:34:06.738Z,24.46
2022-08-05T23:36:39.915Z,24.44
2022-08-05T23:39:16.340Z,24.44
2022-08-05T23:41:51.028Z,24.46
2022-08-05T23:44:19.805Z,24.46
2022-08-05T23:46:51.799Z,24.47
2022-08-05T23:49:23.665Z,24.48
2022-08-05T23:52:10.626Z,24.47
2022-08-05T23:54:38.605Z,24.46
2022-08-05T23:57:06.171Z,24.45
